sensor_id;sensor_type;location;lat;lon;timestamp;temperature;humidity
45807;DHT22;31507;51.494;7.518;2022-09-27T00:00:16;9.90;99.90
45807;DHT22;31507;51.494;7.518;2022-09-27T00:02:41;9.90;99.90
45807;DHT22;31507;51.494;7.518;2022-09-27T00:05:07;9.80;99.90
45807;DHT22;31507;51.494;7.518;2022-09-27T00:07:33;9.80;99.90
45807;DHT22;31507;51.494;7.518;2022-09-27T00:09:58;9.80;99.90
45807;DHT22;31507;51.494;7.518;2022-09-27T00:12:24;9.80;99.90
45807;DHT22;31507;51.494;7.518;2022-09-27T00:14:50;9.70;99.90
45807;DHT22;31507;51.494;7.518;2022-09-27T00:17:15;9.70;99.90
45807;DHT22;31507;51.494;7.518;2022-09-27T00:19:41;9.70;99.90
45807;DHT22;31507;51.494;7.518;2022-09-27T00:22:07;9.70;99.90
45807;DHT22;31507;51.494;7.518;2022-09-27T00:24:33;9.60;99.90
45807;DHT22;31507;51.494;7.518;2022-09-27T00:26:58;9.60;99.90
45807;DHT22;31507;51.494;7.518;2022-09-27T00:29:24;9.60;99.90
45807;DHT22;31507;51.494;7.518;2022-09-27T00:31:50;9.60;99.90
45807;DHT22;31507;51.494;7.518;2022-09-27T00:34:19;9.60;99.90
45807;DHT22;31507;51.494;7.518;2022-09-27T00:36:45;9.60;99.90
45807;DHT22;31507;51.494;7.518;2022-09-27T00:39:11;9.60;99.90
45807;DHT22;31507;51.494;7.518;2022-09-27T00:41:37;9.60;99.90
45807;DHT22;31507;51.494;7.518;2022-09-27T00:51:53;9.40;99.90
45807;DHT22;31507;51.494;7.518;2022-09-27T00:54:20;9.50;99.90
45807;DHT22;31507;51.494;7.518;2022-09-27T00:56:48;9.40;99.90
45807;DHT22;31507;51.494;7.518;2022-09-27T00:59:27;9.40;99.90
45807;DHT22;31507;51.494;7.518;2022-09-27T01:01:55;9.40;99.90
45807;DHT22;31507;51.494;7.518;2022-09-27T01:04:23;9.30;99.90
45807;DHT22;31507;51.494;7.518;2022-09-27T01:06:50;9.30;99.90
45807;DHT22;31507;51.494;7.518;2022-09-27T01:09:16;9.30;99.90
45807;DHT22;31507;51.494;7.518;2022-09-27T01:20:10;9.20;99.90
45807;DHT22;31507;51.494;7.518;2022-09-27T01:26:51;9.20;99.90
45807;DHT22;31507;51.494;7.518;2022-09-27T01:32:02;9.20;99.90
45807;DHT22;31507;51.494;7.518;2022-09-27T01:43:12;9.10;99.90
45807;DHT22;31507;51.494;7.518;2022-09-27T01:45:59;9.10;99.90
45807;DHT22;31507;51.494;7.518;2022-09-27T01:48:31;9.20;99.90
45807;DHT22;31507;51.494;7.518;2022-09-27T01:51:13;9.20;99.90
45807;DHT22;31507;51.494;7.518;2022-09-27T01:53:52;9.20;99.90
45807;DHT22;31507;51.494;7.518;2022-09-27T01:59:18;9.20;99.90
45807;DHT22;31507;51.494;7.518;2022-09-27T02:01:47;9.20;99.90
45807;DHT22;31507;51.494;7.518;2022-09-27T02:04:20;9.20;99.90
45807;DHT22;31507;51.494;7.518;2022-09-27T02:06:49;9.20;99.90
45807;DHT22;31507;51.494;7.518;2022-09-27T02:09:30;9.20;99.90
45807;DHT22;31507;51.494;7.518;2022-09-27T02:12:01;9.20;99.90
45807;DHT22;31507;51.494;7.518;2022-09-27T02:14:49;9.20;99.90
45807;DHT22;31507;51.494;7.518;2022-09-27T02:17:59;9.20;99.90
45807;DHT22;31507;51.494;7.518;2022-09-27T02:20:44;9.20;99.90
45807;DHT22;31507;51.494;7.518;2022-09-27T02:23:34;9.20;99.90
45807;DHT22;31507;51.494;7.518;2022-09-27T02:26:23;9.20;99.90
45807;DHT22;31507;51.494;7.518;2022-09-27T02:28:59;9.20;99.90
45807;DHT22;31507;51.494;7.518;2022-09-27T02:31:27;9.10;99.90
45807;DHT22;31507;51.494;7.518;2022-09-27T02:33:57;9.10;99.90
45807;DHT22;31507;51.494;7.518;2022-09-27T02:36:24;9.10;99.90
45807;DHT22;31507;51.494;7.518;2022-09-27T02:38:50;9.20;99.90
45807;DHT22;31507;51.494;7.518;2022-09-27T02:41:18;9.10;99.90
45807;DHT22;31507;51.494;7.518;2022-09-27T02:43:51;9.10;99.90
45807;DHT22;31507;51.494;7.518;2022-09-27T02:59:32;9.10;99.90
45807;DHT22;31507;51.494;7.518;2022-09-27T03:02:33;9.10;99.90
45807;DHT22;31507;51.494;7.518;2022-09-27T03:05:03;9.10;99.90
45807;DHT22;31507;51.494;7.518;2022-09-27T03:07:30;9.10;99.90
45807;DHT22;31507;51.494;7.518;2022-09-27T03:09:56;9.10;99.90
45807;DHT22;31507;51.494;7.518;2022-09-27T03:12:22;9.00;99.90
45807;DHT22;31507;51.494;7.518;2022-09-27T03:14:59;9.00;99.90
45807;DHT22;31507;51.494;7.518;2022-09-27T03:17:25;9.00;99.90
45807;DHT22;31507;51.494;7.518;2022-09-27T03:19:51;9.00;99.90
45807;DHT22;31507;51.494;7.518;2022-09-27T03:22:17;9.00;99.90
45807;DHT22;31507;51.494;7.518;2022-09-27T03:24:43;9.00;99.90
45807;DHT22;31507;51.494;7.518;2022-09-27T03:27:10;8.90;99.90
45807;DHT22;31507;51.494;7.518;2022-09-27T03:29:36;8.90;99.90
45807;DHT22;31507;51.494;7.518;2022-09-27T03:32:02;8.90;99.90
45807;DHT22;31507;51.494;7.518;2022-09-27T03:34:28;8.90;99.90
45807;DHT22;31507;51.494;7.518;2022-09-27T03:36:56;8.90;99.90
45807;DHT22;31507;51.494;7.518;2022-09-27T03:39:22;8.90;99.90
45807;DHT22;31507;51.494;7.518;2022-09-27T03:41:48;8.80;99.90
45807;DHT22;31507;51.494;7.518;2022-09-27T03:44:13;8.90;99.90
45807;DHT22;31507;51.494;7.518;2022-09-27T03:46:39;8.90;99.90
45807;DHT22;31507;51.494;7.518;2022-09-27T03:49:05;8.90;99.90
45807;DHT22;31507;51.494;7.518;2022-09-27T03:51:30;8.90;99.90
45807;DHT22;31507;51.494;7.518;2022-09-27T03:53:56;8.90;99.90
45807;DHT22;31507;51.494;7.518;2022-09-27T03:56:22;8.90;99.90
45807;DHT22;31507;51.494;7.518;2022-09-27T03:58:47;8.90;99.90
45807;DHT22;31507;51.494;7.518;2022-09-27T04:01:13;9.00;99.90
45807;DHT22;31507;51.494;7.518;2022-09-27T04:03:39;8.90;99.90
45807;DHT22;31507;51.494;7.518;2022-09-27T04:06:05;9.00;99.90
45807;DHT22;31507;51.494;7.518;2022-09-27T04:08:30;8.90;99.90
45807;DHT22;31507;51.494;7.518;2022-09-27T04:10:56;8.80;99.90
45807;DHT22;31507;51.494;7.518;2022-09-27T04:13:23;8.80;99.90
45807;DHT22;31507;51.494;7.518;2022-09-27T04:15:48;8.70;99.90
45807;DHT22;31507;51.494;7.518;2022-09-27T04:18:14;8.60;99.90
45807;DHT22;31507;51.494;7.518;2022-09-27T04:20:40;8.60;99.90
45807;DHT22;31507;51.494;7.518;2022-09-27T04:23:06;8.60;99.90
45807;DHT22;31507;51.494;7.518;2022-09-27T04:25:32;8.50;99.90
45807;DHT22;31507;51.494;7.518;2022-09-27T04:27:58;8.50;99.90
45807;DHT22;31507;51.494;7.518;2022-09-27T04:30:24;8.50;99.90
45807;DHT22;31507;51.494;7.518;2022-09-27T04:32:51;8.50;99.90
45807;DHT22;31507;51.494;7.518;2022-09-27T04:35:17;8.50;99.90
45807;DHT22;31507;51.494;7.518;2022-09-27T04:38:01;8.50;99.90
45807;DHT22;31507;51.494;7.518;2022-09-27T04:40:27;8.40;99.90
45807;DHT22;31507;51.494;7.518;2022-09-27T04:42:53;8.40;99.90
45807;DHT22;31507;51.494;7.518;2022-09-27T04:45:19;8.30;99.90
45807;DHT22;31507;51.494;7.518;2022-09-27T04:47:47;8.20;99.90
45807;DHT22;31507;51.494;7.518;2022-09-27T04:50:13;8.20;99.90
45807;DHT22;31507;51.494;7.518;2022-09-27T04:52:39;8.20;99.90
45807;DHT22;31507;51.494;7.518;2022-09-27T04:55:07;8.10;99.90
45807;DHT22;31507;51.494;7.518;2022-09-27T04:57:33;8.10;99.90
45807;DHT22;31507;51.494;7.518;2022-09-27T04:59:58;8.10;99.90
45807;DHT22;31507;51.494;7.518;2022-09-27T05:02:28;8.20;99.90
45807;DHT22;31507;51.494;7.518;2022-09-27T05:04:55;8.20;99.90
45807;DHT22;31507;51.494;7.518;2022-09-27T05:07:24;8.30;99.90
45807;DHT22;31507;51.494;7.518;2022-09-27T05:09:50;8.30;99.90
45807;DHT22;31507;51.494;7.518;2022-09-27T05:12:16;8.30;99.90
45807;DHT22;31507;51.494;7.518;2022-09-27T05:14:41;8.40;99.90
45807;DHT22;31507;51.494;7.518;2022-09-27T05:17:07;8.40;99.90
45807;DHT22;31507;51.494;7.518;2022-09-27T05:19:34;8.40;99.90
45807;DHT22;31507;51.494;7.518;2022-09-27T05:22:00;8.40;99.90
45807;DHT22;31507;51.494;7.518;2022-09-27T05:24:26;8.50;99.90
45807;DHT22;31507;51.494;7.518;2022-09-27T05:27:00;8.50;99.90
45807;DHT22;31507;51.494;7.518;2022-09-27T05:29:26;8.60;99.90
45807;DHT22;31507;51.494;7.518;2022-09-27T05:31:53;8.60;99.90
45807;DHT22;31507;51.494;7.518;2022-09-27T05:34:19;8.60;99.90
45807;DHT22;31507;51.494;7.518;2022-09-27T05:36:48;8.60;99.90
45807;DHT22;31507;51.494;7.518;2022-09-27T05:39:15;8.60;99.90
45807;DHT22;31507;51.494;7.518;2022-09-27T05:41:44;8.60;99.90
45807;DHT22;31507;51.494;7.518;2022-09-27T05:44:10;8.60;99.90
45807;DHT22;31507;51.494;7.518;2022-09-27T05:46:37;8.60;99.90
45807;DHT22;31507;51.494;7.518;2022-09-27T05:49:04;8.60;99.90
45807;DHT22;31507;51.494;7.518;2022-09-27T05:51:29;8.60;99.90
45807;DHT22;31507;51.494;7.518;2022-09-27T05:53:55;8.70;99.90
45807;DHT22;31507;51.494;7.518;2022-09-27T05:56:21;8.70;99.90
45807;DHT22;31507;51.494;7.518;2022-09-27T05:58:47;8.70;99.90
45807;DHT22;31507;51.494;7.518;2022-09-27T06:01:12;8.70;99.90
45807;DHT22;31507;51.494;7.518;2022-09-27T06:03:38;8.70;99.90
45807;DHT22;31507;51.494;7.518;2022-09-27T06:06:06;8.70;99.90
45807;DHT22;31507;51.494;7.518;2022-09-27T06:08:33;8.70;99.90
45807;DHT22;31507;51.494;7.518;2022-09-27T06:11:05;8.70;99.90
45807;DHT22;31507;51.494;7.518;2022-09-27T06:13:31;8.70;99.90
45807;DHT22;31507;51.494;7.518;2022-09-27T06:16:09;8.70;99.90
45807;DHT22;31507;51.494;7.518;2022-09-27T06:18:35;8.70;99.90
45807;DHT22;31507;51.494;7.518;2022-09-27T06:21:02;8.70;99.90
45807;DHT22;31507;51.494;7.518;2022-09-27T06:23:29;8.80;99.90
45807;DHT22;31507;51.494;7.518;2022-09-27T06:26:03;8.80;99.90
45807;DHT22;31507;51.494;7.518;2022-09-27T06:28:30;8.90;99.90
45807;DHT22;31507;51.494;7.518;2022-09-27T06:30:56;9.00;99.90
45807;DHT22;31507;51.494;7.518;2022-09-27T06:33:24;9.00;99.90
45807;DHT22;31507;51.494;7.518;2022-09-27T06:35:52;9.20;99.90
45807;DHT22;31507;51.494;7.518;2022-09-27T06:38:19;9.20;99.90
45807;DHT22;31507;51.494;7.518;2022-09-27T06:40:46;9.40;99.90
45807;DHT22;31507;51.494;7.518;2022-09-27T06:43:17;9.40;99.90
45807;DHT22;31507;51.494;7.518;2022-09-27T06:45:44;9.40;99.90
45807;DHT22;31507;51.494;7.518;2022-09-27T06:48:11;9.40;99.90
45807;DHT22;31507;51.494;7.518;2022-09-27T06:50:39;9.40;99.90
45807;DHT22;31507;51.494;7.518;2022-09-27T06:53:07;9.30;99.90
45807;DHT22;31507;51.494;7.518;2022-09-27T06:55:35;9.20;99.90
45807;DHT22;31507;51.494;7.518;2022-09-27T06:58:01;9.20;99.90
45807;DHT22;31507;51.494;7.518;2022-09-27T07:00:54;9.30;99.90
45807;DHT22;31507;51.494;7.518;2022-09-27T07:03:21;9.30;99.90
45807;DHT22;31507;51.494;7.518;2022-09-27T07:05:56;9.40;99.90
45807;DHT22;31507;51.494;7.518;2022-09-27T07:08:22;9.40;99.90
45807;DHT22;31507;51.494;7.518;2022-09-27T07:10:51;9.50;99.90
45807;DHT22;31507;51.494;7.518;2022-09-27T07:13:17;9.50;99.90
45807;DHT22;31507;51.494;7.518;2022-09-27T07:15:43;9.50;99.90
45807;DHT22;31507;51.494;7.518;2022-09-27T07:18:09;9.50;99.90
45807;DHT22;31507;51.494;7.518;2022-09-27T07:20:35;9.40;99.90
45807;DHT22;31507;51.494;7.518;2022-09-27T07:23:06;9.30;99.90
45807;DHT22;31507;51.494;7.518;2022-09-27T07:25:32;9.30;99.90
45807;DHT22;31507;51.494;7.518;2022-09-27T07:28:03;9.20;99.90
45807;DHT22;31507;51.494;7.518;2022-09-27T07:30:29;9.10;99.90
45807;DHT22;31507;51.494;7.518;2022-09-27T07:32:59;9.10;99.90
45807;DHT22;31507;51.494;7.518;2022-09-27T07:35:26;9.10;99.90
45807;DHT22;31507;51.494;7.518;2022-09-27T07:37:52;9.10;99.90
45807;DHT22;31507;51.494;7.518;2022-09-27T07:40:18;9.10;99.90
45807;DHT22;31507;51.494;7.518;2022-09-27T07:42:44;9.00;99.90
45807;DHT22;31507;51.494;7.518;2022-09-27T07:45:10;9.00;99.90
45807;DHT22;31507;51.494;7.518;2022-09-27T07:47:40;9.00;99.90
45807;DHT22;31507;51.494;7.518;2022-09-27T07:50:08;9.00;99.90
45807;DHT22;31507;51.494;7.518;2022-09-27T07:52:41;8.90;99.90
45807;DHT22;31507;51.494;7.518;2022-09-27T07:55:09;9.00;99.90
45807;DHT22;31507;51.494;7.518;2022-09-27T07:57:35;9.00;99.90
45807;DHT22;31507;51.494;7.518;2022-09-27T08:00:04;9.10;99.90
45807;DHT22;31507;51.494;7.518;2022-09-27T08:02:30;9.00;99.90
45807;DHT22;31507;51.494;7.518;2022-09-27T08:05:00;9.10;99.90
45807;DHT22;31507;51.494;7.518;2022-09-27T08:07:26;9.10;99.90
45807;DHT22;31507;51.494;7.518;2022-09-27T08:09:52;9.10;99.90
45807;DHT22;31507;51.494;7.518;2022-09-27T08:12:18;9.20;99.90
45807;DHT22;31507;51.494;7.518;2022-09-27T08:14:46;9.20;99.90
45807;DHT22;31507;51.494;7.518;2022-09-27T08:17:12;9.20;99.90
45807;DHT22;31507;51.494;7.518;2022-09-27T08:19:38;9.10;99.90
45807;DHT22;31507;51.494;7.518;2022-09-27T08:22:08;9.10;99.90
45807;DHT22;31507;51.494;7.518;2022-09-27T08:24:34;9.00;99.90
45807;DHT22;31507;51.494;7.518;2022-09-27T08:27:01;9.00;99.90
45807;DHT22;31507;51.494;7.518;2022-09-27T08:29:27;9.00;99.90
45807;DHT22;31507;51.494;7.518;2022-09-27T08:31:53;9.10;99.90
45807;DHT22;31507;51.494;7.518;2022-09-27T08:34:22;9.30;99.90
45807;DHT22;31507;51.494;7.518;2022-09-27T08:36:48;9.50;99.90
45807;DHT22;31507;51.494;7.518;2022-09-27T08:39:14;9.60;99.90
45807;DHT22;31507;51.494;7.518;2022-09-27T08:47:35;10.00;99.90
45807;DHT22;31507;51.494;7.518;2022-09-27T08:55:37;10.30;99.90
45807;DHT22;31507;51.494;7.518;2022-09-27T08:58:29;10.40;99.90
45807;DHT22;31507;51.494;7.518;2022-09-27T09:01:05;10.30;99.90
45807;DHT22;31507;51.494;7.518;2022-09-27T09:03:37;10.20;99.90
45807;DHT22;31507;51.494;7.518;2022-09-27T09:31:01;10.90;99.90
45807;DHT22;31507;51.494;7.518;2022-09-27T09:33:33;11.40;99.90
45807;DHT22;31507;51.494;7.518;2022-09-27T09:36:12;11.40;99.90
45807;DHT22;31507;51.494;7.518;2022-09-27T09:38:54;11.10;99.90
45807;DHT22;31507;51.494;7.518;2022-09-27T09:41:28;10.90;99.90
45807;DHT22;31507;51.494;7.518;2022-09-27T09:46:30;10.50;99.90
45807;DHT22;31507;51.494;7.518;2022-09-27T09:51:48;10.30;99.90
45807;DHT22;31507;51.494;7.518;2022-09-27T09:54:21;10.20;99.90
45807;DHT22;31507;51.494;7.518;2022-09-27T09:56:54;10.20;99.90
45807;DHT22;31507;51.494;7.518;2022-09-27T10:02:31;10.20;99.90
45807;DHT22;31507;51.494;7.518;2022-09-27T10:04:59;10.20;99.90
45807;DHT22;31507;51.494;7.518;2022-09-27T10:07:26;10.30;99.90
45807;DHT22;31507;51.494;7.518;2022-09-27T10:09:56;10.20;99.90
45807;DHT22;31507;51.494;7.518;2022-09-27T10:12:23;10.30;99.90
45807;DHT22;31507;51.494;7.518;2022-09-27T10:14:49;10.30;99.90
45807;DHT22;31507;51.494;7.518;2022-09-27T10:17:19;10.40;99.90
45807;DHT22;31507;51.494;7.518;2022-09-27T10:19:46;10.40;99.90
45807;DHT22;31507;51.494;7.518;2022-09-27T10:25:01;10.40;99.90
45807;DHT22;31507;51.494;7.518;2022-09-27T10:27:40;10.50;99.90
45807;DHT22;31507;51.494;7.518;2022-09-27T10:32:52;11.10;99.90
45807;DHT22;31507;51.494;7.518;2022-09-27T10:35:32;11.30;99.90
45807;DHT22;31507;51.494;7.518;2022-09-27T10:40:42;11.50;99.90
45807;DHT22;31507;51.494;7.518;2022-09-27T10:43:27;11.70;99.90
45807;DHT22;31507;51.494;7.518;2022-09-27T10:46:14;11.70;99.90
45807;DHT22;31507;51.494;7.518;2022-09-27T10:48:42;11.50;99.90
45807;DHT22;31507;51.494;7.518;2022-09-27T10:51:22;11.60;99.90
45807;DHT22;31507;51.494;7.518;2022-09-27T10:53:50;11.70;99.90
45807;DHT22;31507;51.494;7.518;2022-09-27T10:56:25;11.60;99.90
45807;DHT22;31507;51.494;7.518;2022-09-27T10:58:52;11.60;99.90
45807;DHT22;31507;51.494;7.518;2022-09-27T11:01:19;11.30;99.90
45807;DHT22;31507;51.494;7.518;2022-09-27T11:03:49;11.10;99.90
45807;DHT22;31507;51.494;7.518;2022-09-27T11:08:48;10.80;99.90
45807;DHT22;31507;51.494;7.518;2022-09-27T11:11:25;10.70;99.90
45807;DHT22;31507;51.494;7.518;2022-09-27T11:13:58;10.60;99.90
45807;DHT22;31507;51.494;7.518;2022-09-27T11:35:18;13.60;99.90
45807;DHT22;31507;51.494;7.518;2022-09-27T11:51:04;12.70;99.90
45807;DHT22;31507;51.494;7.518;2022-09-27T12:10:16;12.40;99.90
45807;DHT22;31507;51.494;7.518;2022-09-27T12:12:45;12.40;99.90
45807;DHT22;31507;51.494;7.518;2022-09-27T12:15:24;12.40;99.90
45807;DHT22;31507;51.494;7.518;2022-09-27T12:17:54;12.40;99.90
45807;DHT22;31507;51.494;7.518;2022-09-27T12:20:27;12.30;99.90
45807;DHT22;31507;51.494;7.518;2022-09-27T12:23:15;12.20;99.90
45807;DHT22;31507;51.494;7.518;2022-09-27T12:25:44;12.10;99.90
45807;DHT22;31507;51.494;7.518;2022-09-27T12:28:47;11.90;99.90
45807;DHT22;31507;51.494;7.518;2022-09-27T12:34:41;11.70;99.90
45807;DHT22;31507;51.494;7.518;2022-09-27T12:37:14;11.60;99.90
45807;DHT22;31507;51.494;7.518;2022-09-27T12:39:52;11.70;99.90
45807;DHT22;31507;51.494;7.518;2022-09-27T12:42:43;11.70;99.90
45807;DHT22;31507;51.494;7.518;2022-09-27T12:45:14;11.50;99.90
45807;DHT22;31507;51.494;7.518;2022-09-27T12:50:35;11.50;99.90
45807;DHT22;31507;51.494;7.518;2022-09-27T12:53:24;11.60;99.90
45807;DHT22;31507;51.494;7.518;2022-09-27T13:07:09;11.80;99.90
45807;DHT22;31507;51.494;7.518;2022-09-27T13:12:36;11.30;99.90
45807;DHT22;31507;51.494;7.518;2022-09-27T13:17:50;10.60;99.90
45807;DHT22;31507;51.494;7.518;2022-09-27T13:22:53;10.00;99.90
45807;DHT22;31507;51.494;7.518;2022-09-27T13:31:07;10.00;99.90
45807;DHT22;31507;51.494;7.518;2022-09-27T13:36:17;10.00;99.90
45807;DHT22;31507;51.494;7.518;2022-09-27T13:44:17;9.90;99.90
45807;DHT22;31507;51.494;7.518;2022-09-27T13:46:50;10.00;99.90
45807;DHT22;31507;51.494;7.518;2022-09-27T13:49:25;10.00;99.90
45807;DHT22;31507;51.494;7.518;2022-09-27T13:52:18;10.00;99.90
45807;DHT22;31507;51.494;7.518;2022-09-27T13:54:56;10.10;99.90
45807;DHT22;31507;51.494;7.518;2022-09-27T14:00:25;10.50;99.90
45807;DHT22;31507;51.494;7.518;2022-09-27T14:06:04;10.70;99.90
45807;DHT22;31507;51.494;7.518;2022-09-27T14:08:45;10.80;99.90
45807;DHT22;31507;51.494;7.518;2022-09-27T14:11:25;10.90;99.90
45807;DHT22;31507;51.494;7.518;2022-09-27T14:13:52;10.90;99.90
45807;DHT22;31507;51.494;7.518;2022-09-27T14:16:19;10.90;99.90
45807;DHT22;31507;51.494;7.518;2022-09-27T14:21:31;10.70;99.90
45807;DHT22;31507;51.494;7.518;2022-09-27T14:24:19;10.60;99.90
45807;DHT22;31507;51.494;7.518;2022-09-27T14:26:45;10.60;99.90
45807;DHT22;31507;51.494;7.518;2022-09-27T14:29:18;10.50;99.90
45807;DHT22;31507;51.494;7.518;2022-09-27T14:31:44;10.50;99.90
45807;DHT22;31507;51.494;7.518;2022-09-27T14:34:12;10.50;99.90
45807;DHT22;31507;51.494;7.518;2022-09-27T14:36:38;10.50;99.90
45807;DHT22;31507;51.494;7.518;2022-09-27T14:39:29;10.50;99.90
45807;DHT22;31507;51.494;7.518;2022-09-27T14:42:02;10.50;99.90
45807;DHT22;31507;51.494;7.518;2022-09-27T14:44:29;10.50;99.90
45807;DHT22;31507;51.494;7.518;2022-09-27T14:47:23;10.50;99.90
45807;DHT22;31507;51.494;7.518;2022-09-27T14:52:23;10.50;99.90
45807;DHT22;31507;51.494;7.518;2022-09-27T14:55:12;10.50;99.90
45807;DHT22;31507;51.494;7.518;2022-09-27T14:57:51;10.60;99.90
45807;DHT22;31507;51.494;7.518;2022-09-27T15:00:26;10.70;99.90
45807;DHT22;31507;51.494;7.518;2022-09-27T15:02:58;10.70;99.90
45807;DHT22;31507;51.494;7.518;2022-09-27T15:05:29;10.70;99.90
45807;DHT22;31507;51.494;7.518;2022-09-27T15:07:57;10.80;99.90
45807;DHT22;31507;51.494;7.518;2022-09-27T15:10:28;10.90;99.90
45807;DHT22;31507;51.494;7.518;2022-09-27T15:12:56;10.90;99.90
45807;DHT22;31507;51.494;7.518;2022-09-27T15:15:27;10.90;99.90
45807;DHT22;31507;51.494;7.518;2022-09-27T15:17:55;10.90;99.90
45807;DHT22;31507;51.494;7.518;2022-09-27T15:20:30;10.80;99.90
45807;DHT22;31507;51.494;7.518;2022-09-27T15:22:58;10.80;99.90
45807;DHT22;31507;51.494;7.518;2022-09-27T15:25:32;10.70;99.90
45807;DHT22;31507;51.494;7.518;2022-09-27T15:30:40;10.60;99.90
45807;DHT22;31507;51.494;7.518;2022-09-27T15:33:19;10.60;99.90
45807;DHT22;31507;51.494;7.518;2022-09-27T15:35:51;10.50;99.90
45807;DHT22;31507;51.494;7.518;2022-09-27T15:38:32;10.40;99.90
45807;DHT22;31507;51.494;7.518;2022-09-27T15:43:34;10.30;99.90
45807;DHT22;31507;51.494;7.518;2022-09-27T15:46:04;10.30;99.90
45807;DHT22;31507;51.494;7.518;2022-09-27T15:48:31;10.20;99.90
45807;DHT22;31507;51.494;7.518;2022-09-27T15:51:00;10.10;99.90
45807;DHT22;31507;51.494;7.518;2022-09-27T15:56:01;10.10;99.90
45807;DHT22;31507;51.494;7.518;2022-09-27T15:58:27;10.00;99.90
45807;DHT22;31507;51.494;7.518;2022-09-27T16:00:58;10.00;99.90
45807;DHT22;31507;51.494;7.518;2022-09-27T16:03:27;9.90;99.90
45807;DHT22;31507;51.494;7.518;2022-09-27T16:05:54;9.90;99.90
45807;DHT22;31507;51.494;7.518;2022-09-27T16:08:21;9.90;99.90
45807;DHT22;31507;51.494;7.518;2022-09-27T16:10:51;9.90;99.90
45807;DHT22;31507;51.494;7.518;2022-09-27T16:13:18;9.90;99.90
45807;DHT22;31507;51.494;7.518;2022-09-27T16:15:44;9.90;99.90
45807;DHT22;31507;51.494;7.518;2022-09-27T16:18:10;9.90;99.90
45807;DHT22;31507;51.494;7.518;2022-09-27T16:20:36;9.90;99.90
45807;DHT22;31507;51.494;7.518;2022-09-27T16:23:02;9.90;99.90
45807;DHT22;31507;51.494;7.518;2022-09-27T16:25:28;9.80;99.90
45807;DHT22;31507;51.494;7.518;2022-09-27T16:27:58;9.80;99.90
45807;DHT22;31507;51.494;7.518;2022-09-27T16:30:24;9.80;99.90
45807;DHT22;31507;51.494;7.518;2022-09-27T16:32:51;9.80;99.90
45807;DHT22;31507;51.494;7.518;2022-09-27T16:35:18;9.70;99.90
45807;DHT22;31507;51.494;7.518;2022-09-27T16:37:44;9.70;99.90
45807;DHT22;31507;51.494;7.518;2022-09-27T16:40:11;9.70;99.90
45807;DHT22;31507;51.494;7.518;2022-09-27T16:42:37;9.60;99.90
45807;DHT22;31507;51.494;7.518;2022-09-27T16:45:05;9.60;99.90
45807;DHT22;31507;51.494;7.518;2022-09-27T16:47:31;9.60;99.90
45807;DHT22;31507;51.494;7.518;2022-09-27T16:49:57;9.60;99.90
45807;DHT22;31507;51.494;7.518;2022-09-27T16:52:41;9.60;99.90
45807;DHT22;31507;51.494;7.518;2022-09-27T16:55:08;9.60;99.90
45807;DHT22;31507;51.494;7.518;2022-09-27T16:57:34;9.50;99.90
45807;DHT22;31507;51.494;7.518;2022-09-27T17:00:00;9.50;99.90
45807;DHT22;31507;51.494;7.518;2022-09-27T17:02:26;9.40;99.90
45807;DHT22;31507;51.494;7.518;2022-09-27T17:04:53;9.50;99.90
45807;DHT22;31507;51.494;7.518;2022-09-27T17:07:19;9.40;99.90
45807;DHT22;31507;51.494;7.518;2022-09-27T17:09:45;9.40;99.90
45807;DHT22;31507;51.494;7.518;2022-09-27T17:12:12;9.30;99.90
45807;DHT22;31507;51.494;7.518;2022-09-27T17:14:37;9.30;99.90
45807;DHT22;31507;51.494;7.518;2022-09-27T17:17:03;9.30;99.90
45807;DHT22;31507;51.494;7.518;2022-09-27T17:19:29;9.30;99.90
45807;DHT22;31507;51.494;7.518;2022-09-27T17:21:56;9.20;99.90
45807;DHT22;31507;51.494;7.518;2022-09-27T17:24:22;9.10;99.90
45807;DHT22;31507;51.494;7.518;2022-09-27T17:26:47;9.10;99.90
45807;DHT22;31507;51.494;7.518;2022-09-27T17:29:13;9.00;99.90
45807;DHT22;31507;51.494;7.518;2022-09-27T17:31:40;9.00;99.90
45807;DHT22;31507;51.494;7.518;2022-09-27T17:34:09;8.90;99.90
45807;DHT22;31507;51.494;7.518;2022-09-27T17:36:39;8.80;99.90
45807;DHT22;31507;51.494;7.518;2022-09-27T17:39:06;8.80;99.90
45807;DHT22;31507;51.494;7.518;2022-09-27T17:41:32;8.70;99.90
45807;DHT22;31507;51.494;7.518;2022-09-27T17:44:00;8.60;99.90
45807;DHT22;31507;51.494;7.518;2022-09-27T17:46:32;8.60;99.90
45807;DHT22;31507;51.494;7.518;2022-09-27T17:48:58;8.60;99.90
45807;DHT22;31507;51.494;7.518;2022-09-27T17:51:46;8.50;99.90
45807;DHT22;31507;51.494;7.518;2022-09-27T17:54:13;8.50;99.90
45807;DHT22;31507;51.494;7.518;2022-09-27T17:56:41;8.50;99.90
45807;DHT22;31507;51.494;7.518;2022-09-27T17:59:08;8.50;99.90
45807;DHT22;31507;51.494;7.518;2022-09-27T18:01:35;8.40;99.90
45807;DHT22;31507;51.494;7.518;2022-09-27T18:04:05;8.40;99.90
45807;DHT22;31507;51.494;7.518;2022-09-27T18:06:33;8.40;99.90
45807;DHT22;31507;51.494;7.518;2022-09-27T18:08:58;8.40;99.90
45807;DHT22;31507;51.494;7.518;2022-09-27T18:11:25;8.40;99.90
45807;DHT22;31507;51.494;7.518;2022-09-27T18:13:58;8.40;99.90
45807;DHT22;31507;51.494;7.518;2022-09-27T18:16:26;8.50;99.90
45807;DHT22;31507;51.494;7.518;2022-09-27T18:18:57;8.50;99.90
45807;DHT22;31507;51.494;7.518;2022-09-27T18:21:23;8.40;99.90
45807;DHT22;31507;51.494;7.518;2022-09-27T18:23:53;8.40;99.90
45807;DHT22;31507;51.494;7.518;2022-09-27T18:26:19;8.40;99.90
45807;DHT22;31507;51.494;7.518;2022-09-27T18:28:50;8.50;99.90
45807;DHT22;31507;51.494;7.518;2022-09-27T18:31:20;8.40;99.90
45807;DHT22;31507;51.494;7.518;2022-09-27T18:33:47;8.40;99.90
45807;DHT22;31507;51.494;7.518;2022-09-27T18:36:17;8.40;99.90
45807;DHT22;31507;51.494;7.518;2022-09-27T18:38:44;8.40;99.90
45807;DHT22;31507;51.494;7.518;2022-09-27T18:41:17;8.30;99.90
45807;DHT22;31507;51.494;7.518;2022-09-27T18:43:44;8.30;99.90
45807;DHT22;31507;51.494;7.518;2022-09-27T18:46:16;8.30;99.90
45807;DHT22;31507;51.494;7.518;2022-09-27T18:48:41;8.30;99.90
45807;DHT22;31507;51.494;7.518;2022-09-27T18:51:18;8.30;99.90
45807;DHT22;31507;51.494;7.518;2022-09-27T18:53:45;8.20;99.90
45807;DHT22;31507;51.494;7.518;2022-09-27T18:56:13;8.20;99.90
45807;DHT22;31507;51.494;7.518;2022-09-27T18:58:39;8.20;99.90
45807;DHT22;31507;51.494;7.518;2022-09-27T19:01:11;8.30;99.90
45807;DHT22;31507;51.494;7.518;2022-09-27T19:03:37;8.30;99.90
45807;DHT22;31507;51.494;7.518;2022-09-27T19:06:08;8.20;99.90
45807;DHT22;31507;51.494;7.518;2022-09-27T19:08:34;8.30;99.90
45807;DHT22;31507;51.494;7.518;2022-09-27T19:11:07;8.20;99.90
45807;DHT22;31507;51.494;7.518;2022-09-27T19:13:33;8.20;99.90
45807;DHT22;31507;51.494;7.518;2022-09-27T19:16:00;8.20;99.90
45807;DHT22;31507;51.494;7.518;2022-09-27T19:18:26;8.20;99.90
45807;DHT22;31507;51.494;7.518;2022-09-27T19:20:52;8.20;99.90
45807;DHT22;31507;51.494;7.518;2022-09-27T19:23:19;8.20;99.90
45807;DHT22;31507;51.494;7.518;2022-09-27T19:25:51;8.20;99.90
45807;DHT22;31507;51.494;7.518;2022-09-27T19:28:17;8.10;99.90